createdAt,value
2019-06-08T00:01:59.903Z,99800.35
2019-06-08T00:04:34.826Z,99797.42
2019-06-08T00:07:14.651Z,99787.63
2019-06-08T00:09:46.758Z,99779.92
2019-06-08T00:12:18.996Z,99763.61
2019-06-08T00:14:51.424Z,99776.03
2019-06-08T00:17:59.430Z,99775.10
2019-06-08T00:20:44.266Z,99771.38
2019-06-08T00:23:29.711Z,99769.41
2019-06-08T00:26:40.165Z,99772.98
2019-06-08T00:29:22.415Z,99772.98
2019-06-08T00:32:08.823Z,99771.51
2019-06-08T00:35:05.789Z,99772.66
2019-06-08T00:37:49.079Z,99780.36
2019-06-08T00:40:26.902Z,99787.85
2019-06-08T00:43:15.174Z,99788.56
2019-06-08T00:45:53.184Z,99799.95
2019-06-08T00:48:32.866Z,99799.95
2019-06-08T00:51:37.866Z,99794.78
2019-06-08T00:54:35.895Z,99784.66
2019-06-08T00:57:27.178Z,99787.45
2019-06-08T01:00:10.907Z,99786.27
2019-06-08T01:02:50.666Z,99805.23
2019-06-08T01:06:06.829Z,99805.23
2019-06-08T01:09:35.225Z,99802.00
2019-06-08T01:15:49.590Z,99800.59
2019-06-08T01:18:27.842Z,99820.07
2019-06-08T01:21:00.390Z,99834.02
2019-06-08T01:23:37.776Z,99834.02
2019-06-08T01:26:16.118Z,99839.91
2019-06-08T01:28:48.067Z,99833.70
2019-06-08T01:31:24.431Z,99837.06
2019-06-08T01:34:03.768Z,99856.61
2019-06-08T01:36:36.318Z,99860.23
2019-06-08T01:39:09.827Z,99847.25
2019-06-08T01:42:03.409Z,99843.86
2019-06-08T01:44:54.225Z,99838.56
2019-06-08T01:47:32.312Z,99827.60
2019-06-08T01:50:02.597Z,99850.78
2019-06-08T01:52:34.497Z,99843.34
2019-06-08T01:55:11.126Z,99843.64
2019-06-08T01:57:43.211Z,99844.41
2019-06-08T02:00:29.635Z,99858.64
2019-06-08T02:02:50.642Z,99852.44
2019-06-08T02:05:23.988Z,99858.88
2019-06-08T02:07:59.944Z,99874.47
2019-06-08T02:10:34.886Z,99889.19
2019-06-08T02:13:08.793Z,99888.82
2019-06-08T02:15:42.527Z,99874.15
2019-06-08T02:18:17.064Z,99856.03
2019-06-08T02:20:51.160Z,99874.08
2019-06-08T02:23:28.910Z,99881.32
2019-06-08T02:26:04.812Z,99876.28
2019-06-08T02:28:37.904Z,99858.26
2019-06-08T02:34:12.155Z,99885.71
2019-06-08T02:36:53.218Z,99885.71
2019-06-08T02:39:28.472Z,99892.52
2019-06-08T02:42:02.962Z,99902.79
2019-06-08T02:44:38.557Z,99897.91
2019-06-08T02:47:11.004Z,99902.27
2019-06-08T02:49:43.320Z,99900.00
2019-06-08T02:52:15.532Z,99900.20
2019-06-08T02:54:48.209Z,99900.20
2019-06-08T02:57:33.249Z,99888.61
2019-06-08T03:00:15.253Z,99907.45
2019-06-08T03:02:47.686Z,99907.45
2019-06-08T03:05:22.740Z,99915.52
2019-06-08T03:07:55.575Z,99919.47
2019-06-08T03:10:30.784Z,99917.48
2019-06-08T03:13:02.315Z,99917.48
2019-06-08T03:15:36.397Z,99933.35
2019-06-08T03:18:24.411Z,99910.55
2019-06-08T03:20:56.428Z,99915.53
2019-06-08T03:23:29.353Z,99933.14
2019-06-08T03:26:00.648Z,99931.89
2019-06-08T03:28:47.106Z,99939.14
2019-06-08T03:31:20.583Z,99953.55
2019-06-08T03:33:56.630Z,99967.23
2019-06-08T03:36:30.050Z,99965.48
2019-06-08T03:39:02.095Z,99971.53
2019-06-08T03:41:34.809Z,99968.91
2019-06-08T03:44:12.314Z,99981.37
2019-06-08T03:46:47.628Z,99981.37
2019-06-08T03:49:40.418Z,99983.12
2019-06-08T03:52:05.556Z,100001.02
2019-06-08T03:54:40.548Z,100003.13
2019-06-08T03:57:16.472Z,100017.01
2019-06-08T03:59:48.759Z,100011.52
2019-06-08T04:02:30.786Z,100017.81
2019-06-08T04:05:09.043Z,100028.61
2019-06-08T04:07:53.140Z,100036.42
2019-06-08T04:10:26.472Z,100034.59
2019-06-08T04:13:10.875Z,100046.09
2019-06-08T04:15:42.677Z,100053.91
2019-06-08T04:18:19.810Z,100047.49
2019-06-08T04:20:51.896Z,100047.64
2019-06-08T04:23:42.747Z,100059.39
2019-06-08T04:26:18.819Z,100063.28
2019-06-08T04:28:58.710Z,100079.51
2019-06-08T04:31:30.452Z,100064.02
2019-06-08T04:34:02.303Z,100084.95
2019-06-08T04:36:34.218Z,100086.62
2019-06-08T04:39:10.540Z,100085.97
2019-06-08T04:41:42.747Z,100092.52
2019-06-08T04:44:16.052Z,100092.52
2019-06-08T04:46:52.955Z,100090.42
2019-06-08T04:49:28.792Z,100094.34
2019-06-08T04:52:07.409Z,100092.49
2019-06-08T04:54:47.559Z,100090.44
2019-06-08T04:57:26.547Z,100118.92
2019-06-08T05:00:11.734Z,100113.75
2019-06-08T05:02:52.791Z,100114.54
2019-06-08T05:05:26.836Z,100107.75
2019-06-08T05:08:02.363Z,100116.19
2019-06-08T05:10:43.370Z,100118.28
2019-06-08T05:13:18.556Z,100117.97
2019-06-08T05:15:57.309Z,100121.91
2019-06-08T05:18:34.356Z,100130.23
2019-06-08T05:21:12.145Z,100137.47
2019-06-08T05:23:51.135Z,100134.53
2019-06-08T05:26:28.314Z,100115.41
2019-06-08T05:29:11.963Z,100137.53
2019-06-08T05:31:47.613Z,100137.53
2019-06-08T05:34:24.602Z,100140.51
2019-06-08T05:37:06.964Z,100142.37
2019-06-08T05:39:41.538Z,100147.95
2019-06-08T05:42:15.837Z,100142.49
2019-06-08T05:44:50.304Z,100139.73
2019-06-08T05:47:22.407Z,100162.91
2019-06-08T05:49:57.310Z,100146.27
2019-06-08T05:52:29.209Z,100149.58
2019-06-08T05:55:01.288Z,100145.95
2019-06-08T05:57:32.367Z,100135.34
2019-06-08T06:00:09.241Z,100147.16
2019-06-08T06:02:44.736Z,100135.84
2019-06-08T06:05:18.117Z,100148.09
2019-06-08T06:07:53.205Z,100132.00
2019-06-08T06:10:31.731Z,100146.83
2019-06-08T06:13:07.681Z,100143.06
2019-06-08T06:15:40.887Z,100133.33
2019-06-08T06:18:13.291Z,100154.66
2019-06-08T06:20:45.464Z,100170.66
2019-06-08T06:23:17.480Z,100158.78
2019-06-08T06:25:49.668Z,100169.49
2019-06-08T06:28:24.413Z,100149.91
2019-06-08T06:30:58.726Z,100180.81
2019-06-08T06:33:45.965Z,100180.41
2019-06-08T06:36:29.776Z,100186.27
2019-06-08T06:39:04.249Z,100192.39
2019-06-08T06:41:41.877Z,100197.34
2019-06-08T06:44:40.056Z,100201.14
2019-06-08T06:47:12.763Z,100201.14
2019-06-08T06:49:46.419Z,100221.33
2019-06-08T06:52:17.594Z,100227.48
2019-06-08T06:54:49.478Z,100224.75
2019-06-08T06:57:25.520Z,100238.48
2019-06-08T06:59:57.381Z,100237.06
2019-06-08T07:02:32.252Z,100244.13
2019-06-08T07:05:05.942Z,100244.13
2019-06-08T07:07:44.595Z,100257.54
2019-06-08T07:10:20.243Z,100254.73
2019-06-08T07:12:56.039Z,100269.16
2019-06-08T07:15:30.552Z,100277.23
2019-06-08T07:18:09.393Z,100285.93
2019-06-08T07:20:48.117Z,100284.42
2019-06-08T07:23:34.167Z,100282.12
2019-06-08T07:26:08.228Z,100294.19
2019-06-08T07:28:52.001Z,100294.78
2019-06-08T07:31:25.697Z,100292.98
2019-06-08T07:34:07.148Z,100295.67
2019-06-08T07:36:40.914Z,100290.11
2019-06-08T07:39:18.044Z,100299.38
2019-06-08T07:41:52.015Z,100320.98
2019-06-08T07:44:26.816Z,100316.71
2019-06-08T07:47:02.506Z,100318.61
2019-06-08T07:49:33.604Z,100326.91
2019-06-08T07:52:10.750Z,100320.57
2019-06-08T07:54:48.210Z,100319.77
2019-06-08T07:57:23.700Z,100324.80
2019-06-08T07:59:56.347Z,100319.98
2019-06-08T08:02:29.325Z,100317.16
2019-06-08T08:05:07.593Z,100318.65
2019-06-08T08:07:38.796Z,100320.36
2019-06-08T08:10:17.094Z,100324.36
2019-06-08T08:12:52.625Z,100320.93
2019-06-08T08:15:24.038Z,100314.20
2019-06-08T08:17:55.481Z,100304.27
2019-06-08T08:20:30.945Z,100316.70
2019-06-08T08:23:05.957Z,100317.55
2019-06-08T08:25:47.452Z,100321.78
2019-06-08T08:28:20.821Z,100314.09
2019-06-08T08:30:55.410Z,100328.20
2019-06-08T08:33:30.709Z,100337.02
2019-06-08T08:36:04.594Z,100321.45
2019-06-08T08:38:38.066Z,100344.88
2019-06-08T08:41:13.493Z,100343.13
2019-06-08T08:43:45.495Z,100327.77
2019-06-08T08:46:17.721Z,100321.20
2019-06-08T08:48:51.377Z,100325.91
2019-06-08T08:51:23.521Z,100327.27
2019-06-08T08:53:59.942Z,100332.80
2019-06-08T08:56:35.314Z,100320.12
2019-06-08T08:59:13.346Z,100298.66
2019-06-08T09:01:48.435Z,100323.92
2019-06-08T09:04:20.405Z,100306.16
2019-06-08T09:06:53.451Z,100303.97
2019-06-08T09:09:28.686Z,100323.59
2019-06-08T09:12:04.224Z,100346.55
2019-06-08T09:14:41.604Z,100346.56
2019-06-08T09:17:13.850Z,100358.48
2019-06-08T09:19:58.426Z,100362.00
2019-06-08T09:22:33.182Z,100367.13
2019-06-08T09:25:09.048Z,100381.05
2019-06-08T09:27:48.234Z,100379.42
2019-06-08T09:30:19.851Z,100392.83
2019-06-08T09:32:54.433Z,100398.23
2019-06-08T09:35:29.311Z,100378.41
2019-06-08T09:38:05.065Z,100376.06
2019-06-08T09:40:40.277Z,100388.09
2019-06-08T09:43:13.171Z,100400.44
2019-06-08T09:45:48.282Z,100399.81
2019-06-08T09:48:28.592Z,100408.64
2019-06-08T09:51:05.710Z,100405.57
2019-06-08T09:53:41.606Z,100400.32
2019-06-08T09:56:23.308Z,100395.58
2019-06-08T09:59:03.567Z,100398.62
2019-06-08T10:01:38.538Z,100393.02
2019-06-08T10:04:25.455Z,100397.08
2019-06-08T10:07:08.557Z,100391.75
2019-06-08T10:09:42.677Z,100393.34
2019-06-08T10:12:13.722Z,100400.45
2019-06-08T10:15:28.479Z,100404.17
2019-06-08T10:18:17.727Z,100408.47
2019-06-08T10:21:05.774Z,100416.80
2019-06-08T10:23:38.632Z,100419.27
2019-06-08T10:26:22.950Z,100411.06
2019-06-08T10:29:09.062Z,100391.41
2019-06-08T10:31:43.893Z,100423.73
2019-06-08T10:34:20.648Z,100411.17
2019-06-08T10:37:08.046Z,100427.36
2019-06-08T10:39:55.793Z,100431.72
2019-06-08T10:42:30.941Z,100437.77
2019-06-08T10:45:13.140Z,100438.62
2019-06-08T10:47:47.906Z,100453.80
2019-06-08T10:50:20.273Z,100446.09
2019-06-08T10:52:52.210Z,100446.52
2019-06-08T10:55:24.143Z,100424.84
2019-06-08T10:58:06.349Z,100441.63
2019-06-08T11:00:40.877Z,100443.04
2019-06-08T11:03:13.459Z,100444.06
2019-06-08T11:05:48.339Z,100444.06
2019-06-08T11:08:20.754Z,100440.37
2019-06-08T11:10:53.362Z,100445.53
2019-06-08T11:13:25.290Z,100437.59
2019-06-08T11:15:58.675Z,100440.61
2019-06-08T11:18:31.140Z,100460.09
2019-06-08T11:21:03.672Z,100462.14
2019-06-08T11:23:38.453Z,100462.14
2019-06-08T11:26:20.777Z,100464.75
2019-06-08T11:28:50.833Z,100465.34
2019-06-08T11:31:21.216Z,100456.39
2019-06-08T11:33:53.131Z,100462.83
2019-06-08T11:36:28.042Z,100452.08
2019-06-08T11:39:02.560Z,100458.82
2019-06-08T11:41:37.512Z,100449.81
2019-06-08T11:44:12.508Z,100465.30
2019-06-08T11:46:47.627Z,100454.53
2019-06-08T11:49:22.409Z,100456.32
2019-06-08T11:51:54.379Z,100455.34
2019-06-08T11:54:34.385Z,100455.34
2019-06-08T11:57:01.718Z,100471.00
2019-06-08T11:59:42.692Z,100471.00
2019-06-08T12:02:18.979Z,100469.73
2019-06-08T12:05:01.668Z,100468.70
2019-06-08T12:07:34.093Z,100466.98
2019-06-08T12:10:11.301Z,100468.27
2019-06-08T12:12:43.291Z,100466.40
2019-06-08T12:15:21.172Z,100472.02
2019-06-08T12:17:53.893Z,100479.94
2019-06-08T12:20:27.851Z,100465.53
2019-06-08T12:22:59.422Z,100479.16
2019-06-08T12:25:31.434Z,100467.84
2019-06-08T12:28:10.585Z,100471.16
2019-06-08T12:30:47.890Z,100464.13
2019-06-08T12:33:23.052Z,100470.83
2019-06-08T12:35:57.787Z,100471.63
2019-06-08T12:38:34.144Z,100472.61
2019-06-08T12:41:03.492Z,100471.08
2019-06-08T12:43:35.525Z,100481.44
2019-06-08T12:46:13.052Z,100476.20
2019-06-08T12:48:53.449Z,100463.61
2019-06-08T12:51:24.864Z,100467.58
2019-06-08T12:54:01.413Z,100456.29
2019-06-08T12:56:33.437Z,100476.91
2019-06-08T12:59:16.146Z,100468.73
2019-06-08T13:01:50.151Z,100476.59
2019-06-08T13:04:23.863Z,100458.27
2019-06-08T13:06:58.356Z,100472.93
2019-06-08T13:09:30.028Z,100465.81
2019-06-08T13:12:04.572Z,100478.02
2019-06-08T13:14:35.825Z,100470.27
2019-06-08T13:17:10.392Z,100474.81
2019-06-08T13:19:43.719Z,100481.55
2019-06-08T13:22:19.321Z,100477.93
2019-06-08T13:24:51.244Z,100466.30
2019-06-08T13:27:29.194Z,100486.23
2019-06-08T13:30:04.053Z,100490.61
2019-06-08T13:33:16.239Z,100497.60
2019-06-08T13:39:38.653Z,100507.20
2019-06-08T13:42:15.167Z,100487.14
2019-06-08T13:45:32.376Z,100499.99
2019-06-08T13:48:25.934Z,100486.40
2019-06-08T13:51:14.894Z,100498.72
2019-06-08T13:53:58.143Z,100485.63
2019-06-08T13:56:34.323Z,100486.30
2019-06-08T13:59:09.740Z,100486.30
2019-06-08T14:02:31.835Z,100490.21
2019-06-08T14:05:05.029Z,100493.05
2019-06-08T14:07:55.207Z,100491.56
2019-06-08T14:10:39.332Z,100494.84
2019-06-08T14:13:15.110Z,100493.78
2019-06-08T14:15:50.166Z,100504.98
2019-06-08T14:18:33.826Z,100495.61
2019-06-08T14:21:01.592Z,100485.31
2019-06-08T14:23:33.831Z,100497.08
2019-06-08T14:26:13.189Z,100495.98
2019-06-08T14:28:44.297Z,100495.98
2019-06-08T14:31:22.365Z,100488.97
2019-06-08T14:33:54.631Z,100491.03
2019-06-08T14:36:34.447Z,100498.37
2019-06-08T14:39:53.790Z,100490.81
2019-06-08T14:42:31.769Z,100505.67
2019-06-08T14:45:07.492Z,100496.84
2019-06-08T14:47:40.501Z,100495.52
2019-06-08T14:50:12.933Z,100495.52
2019-06-08T14:52:47.913Z,100492.53
2019-06-08T14:55:20.605Z,100489.34
2019-06-08T14:58:01.255Z,100496.08
2019-06-08T15:00:33.470Z,100475.72
2019-06-08T15:03:09.913Z,100478.01
2019-06-08T15:05:41.877Z,100480.52
2019-06-08T15:08:14.006Z,100480.99
2019-06-08T15:10:49.640Z,100494.49
2019-06-08T15:13:20.295Z,100480.98
2019-06-08T15:15:52.221Z,100486.60
2019-06-08T15:18:24.162Z,100486.60
2019-06-08T15:21:00.085Z,100480.90
2019-06-08T15:23:35.140Z,100490.48
2019-06-08T15:26:23.183Z,100490.45
2019-06-08T15:28:43.462Z,100485.13
2019-06-08T15:31:17.908Z,100490.88
2019-06-08T15:33:57.291Z,100486.42
2019-06-08T15:36:31.310Z,100480.00
2019-06-08T15:39:09.223Z,100471.58
2019-06-08T15:41:44.393Z,100475.70
2019-06-08T15:44:20.744Z,100475.70
2019-06-08T15:46:52.031Z,100457.91
2019-06-08T15:49:29.039Z,100464.33
2019-06-08T15:52:10.427Z,100469.73
2019-06-08T15:54:48.418Z,100464.20
2019-06-08T15:57:20.567Z,100474.43
2019-06-08T15:59:58.426Z,100462.17
2019-06-08T16:02:32.314Z,100467.51
2019-06-08T16:05:04.513Z,100475.33
2019-06-08T16:07:43.906Z,100475.33
2019-06-08T16:10:31.142Z,100470.78
2019-06-08T16:13:11.285Z,100472.31
2019-06-08T16:15:49.197Z,100479.00
2019-06-08T16:18:21.219Z,100473.98
2019-06-08T16:20:53.260Z,100467.20
2019-06-08T16:23:25.347Z,100481.97
2019-06-08T16:26:06.387Z,100465.17
2019-06-08T16:28:38.970Z,100465.34
2019-06-08T16:31:14.361Z,100470.20
2019-06-08T16:33:46.806Z,100464.20
2019-06-08T16:36:29.393Z,100468.81
2019-06-08T16:39:01.571Z,100468.81
2019-06-08T16:41:34.009Z,100459.73
2019-06-08T16:44:07.191Z,100475.75
2019-06-08T16:46:46.578Z,100471.16
2019-06-08T16:49:18.600Z,100476.72
2019-06-08T16:51:53.141Z,100482.20
2019-06-08T16:54:28.573Z,100480.51
2019-06-08T16:57:09.880Z,100460.97
2019-06-08T16:59:38.683Z,100479.89
2019-06-08T17:02:10.850Z,100473.01
2019-06-08T17:04:44.546Z,100480.11
2019-06-08T17:07:16.540Z,100479.06
2019-06-08T17:09:48.445Z,100479.06
2019-06-08T17:12:20.441Z,100491.62
2019-06-08T17:14:55.595Z,100497.06
2019-06-08T17:17:30.307Z,100484.86
2019-06-08T17:20:04.592Z,100480.52
2019-06-08T17:22:38.792Z,100489.19
2019-06-08T17:25:11.277Z,100489.62
2019-06-08T17:27:43.358Z,100487.86
2019-06-08T17:30:20.519Z,100485.78
2019-06-08T17:33:01.301Z,100487.93
2019-06-08T17:35:35.613Z,100486.28
2019-06-08T17:38:11.372Z,100489.47
2019-06-08T17:40:43.662Z,100485.31
2019-06-08T17:43:15.976Z,100493.41
2019-06-08T17:45:49.556Z,100492.61
2019-06-08T17:48:23.252Z,100487.89
2019-06-08T17:50:55.278Z,100481.09
2019-06-08T17:53:27.657Z,100485.23
2019-06-08T18:05:17.918Z,100489.46
2019-06-08T18:11:40.132Z,100485.96
2019-06-08T18:14:41.702Z,100487.40
2019-06-08T18:17:10.540Z,100491.84
2019-06-08T18:22:59.295Z,100474.08
2019-06-08T18:28:48.560Z,100479.23
2019-06-08T19:03:25.110Z,100511.52
2019-06-08T19:05:59.373Z,100507.81
2019-06-08T19:11:48.422Z,100512.21
2019-06-08T19:14:47.065Z,100509.05
2019-06-08T19:17:32.847Z,100514.30
2019-06-08T19:22:54.375Z,100515.75
2019-06-08T19:31:51.336Z,100528.09
2019-06-08T19:34:23.759Z,100523.62
2019-06-08T19:36:59.855Z,100528.11
2019-06-08T19:39:31.875Z,100531.22
2019-06-08T19:42:08.542Z,100538.58
2019-06-08T19:44:48.441Z,100540.81
2019-06-08T19:47:27.626Z,100544.08
2019-06-08T20:05:11.451Z,100586.42
2019-06-08T20:07:34.092Z,100569.46
2019-06-08T20:10:43.074Z,100569.46
2019-06-08T20:13:21.794Z,100576.63
2019-06-08T20:31:31.828Z,100585.87
2019-06-08T20:37:01.437Z,100583.30
2019-06-08T20:39:33.186Z,100584.50
2019-06-08T20:42:53.305Z,100580.96
2019-06-08T21:05:09.900Z,100596.75
2019-06-08T21:07:49.498Z,100593.63
2019-06-08T21:10:24.393Z,100593.63
2019-06-08T21:15:50.140Z,100600.15
2019-06-08T21:18:45.214Z,100608.11
2019-06-08T21:21:33.790Z,100609.52
2019-06-08T21:30:19.924Z,100603.54
2019-06-08T21:38:51.936Z,100602.81
2019-06-08T21:41:22.594Z,100608.28
2019-06-08T21:43:57.703Z,100607.29
2019-06-08T22:22:08.401Z,100634.63
2019-06-08T22:27:45.368Z,100635.98
2019-06-08T22:37:29.744Z,100645.98
2019-06-08T22:46:31.119Z,100646.37
2019-06-08T22:49:02.909Z,100648.02
2019-06-08T22:51:38.238Z,100651.00
2019-06-08T22:54:11.098Z,100652.41
2019-06-08T22:56:41.558Z,100632.09
2019-06-08T22:59:13.358Z,100654.15
2019-06-08T23:01:47.609Z,100643.98
2019-06-08T23:04:50.810Z,100644.98
2019-06-08T23:07:28.618Z,100644.53
2019-06-08T23:09:59.386Z,100637.32
2019-06-08T23:12:43.847Z,100644.07
2019-06-08T23:15:27.429Z,100651.89
2019-06-08T23:20:50.729Z,100650.21
2019-06-08T23:25:00.770Z,100649.41
2019-06-08T23:29:02.255Z,100649.91
2019-06-08T23:31:54.102Z,100646.46
2019-06-08T23:34:27.669Z,100652.19
2019-06-08T23:37:04.038Z,100648.14
2019-06-08T23:42:27.338Z,100647.50
2019-06-08T23:44:59.479Z,100643.98
2019-06-08T23:51:09.199Z,100641.14
2019-06-08T23:53:40.057Z,100639.80
2019-06-08T23:56:14.516Z,100641.41
2019-06-08T23:58:48.267Z,100640.20
